Back to snow falling again.

If you wish to post your complete observations, with or without comments, please use this forum.

Back to snow falling again.

Postby Richard Hunt » 2013 Feb 02, 12:25

Wind turned Northerly again and has brought snow, snow grains, and hail showers since midnight.
Nothing lying at the moment, but is is feeling raw in an increasing wind.

Currently:

HSEA 021215Z 36015G24KT 9999 SHRASN BKN004 03/02 Q1017 VCSHSN=
COL Station: 25020.

Watson W-8681 AWS. Standard Stevenson Screen. Maximum and Minimum screen thermometers. Grass minimum thermometer.
5" Copper standard rain gauge. Roof mounted annemometer.
Richard Hunt
 
Posts: 374
Joined: 2012 Jan 27, 19:23
Location: Hornsea, East Yorkshire. 10m AMSL

Return to Current Conditions



Who is online

Users browsing this forum: No registered users and 1 guest

cron